ADDS METAR Data INFO
IDs: Format: Raw Decoded Include TAF

Data at: 0407 UTC 11 Dec 2017

KISQ 110355Z AUTO 27007KT 10SM -SN BKN029 BKN034 OVC040 M09/M13 A3001 RMK AO2 T10901130 410421096
KISQ 110335Z AUTO 28004KT 10SM OVC036 M09/M13 A3001 RMK AO2 T10901126
KISQ 110315Z AUTO 28008KT 10SM OVC038 M09/M12 A3001 RMK AO2 T10881125
KISQ 110255Z AUTO 26003KT 10SM SCT030 OVC038 M09/M12 A3001 RMK AO2 T10871122
KISQ 110235Z AUTO 27004KT 10SM SCT019 OVC036 M09/M12 A3001 RMK AO2 T10871121
KISQ 110215Z AUTO 27003KT 10SM OVC038 M09/M13 A3001 RMK AO2 T10901126
KISQ 110155Z AUTO 29003KT 10SM OVC036 M09/M13 A3001 RMK AO2 T10901131
KISQ 110135Z AUTO 00000KT 10SM OVC038 M09/M13 A3001 RMK AO2 T10901135
KISQ 110115Z AUTO 30004KT 10SM SCT030 OVC036 M09/M14 A3001 RMK AO2 T10901137
KISQ 110055Z AUTO 29003KT 10SM OVC038 M09/M14 A3000 RMK AO2 T10911140
KISQ 110035Z AUTO 28003KT 10SM OVC038 M09/M14 A3000 RMK AO2 T10901145
KISQ 110015Z AUTO 00000KT 10SM OVC038 M09/M15 A2999 RMK AO2 T10911150
KISQ 102355Z AUTO 00000KT 10SM SCT032 OVC040 M09/M15 A2999 RMK AO2 T10901151 11045 21090
KISQ 102335Z AUTO 33005KT 10SM OVC032 M09/M15 A2998 RMK AO2 T10901155
KISQ 102315Z AUTO 35005KT 10SM OVC032 M09/M15 A2998 RMK AO2 T10901155
KISQ 102255Z AUTO 35008KT 10SM OVC033 M09/M15 A2997 RMK AO2 T10891155
KISQ 102235Z AUTO 35005KT 10SM OVC031 M09/M15 A2996 RMK AO2 T10871155
KISQ 102215Z AUTO 35007G15KT 10SM SCT025 OVC032 M09/M15 A2994 RMK AO2 T10861152
KISQ 102155Z AUTO 36013G17KT 10SM SCT016 BKN023 OVC031 M08/M15 A2993 RMK AO2 T10851147
KISQ 102135Z AUTO 34007G16KT 2 1/2SM -SN SCT015 SCT024 OVC031 M08/M12 A2992 RMK AO2 T10811123
KISQ 102115Z AUTO 33010KT 10SM OVC034 M07/M17 A2990 RMK AO2 T10751169
KISQ 102055Z AUTO 32016KT 10SM BKN034 M08/M17 A2989 RMK AO2 T10771167
KISQ 102035Z AUTO 33013G19KT 10SM BKN027 OVC033 M07/M16 A2989 RMK AO2 T10731157
KISQ 102015Z AUTO 34011G18KT 7SM -SN BKN022 OVC031 M07/M13 A2988 RMK AO2 T10681129
KISQ 101955Z AUTO 34009G16KT 10SM BKN022 OVC027 M07/M12 A2986 RMK AO2 T10671125
KISQ 101935Z AUTO 36012G18KT 7SM -SN BKN020 OVC025 M06/M12 A2986 RMK AO2 T10651117
KISQ 101915Z AUTO 34014G20KT 7SM -SN BKN020 OVC028 M06/M11 A2985 RMK AO2 T10601113
KISQ 101855Z AUTO 35014G20KT 10SM -SN SCT009 BKN026 OVC034 M06/M12 A2984 RMK AO2 T10581118
KISQ 101835Z AUTO 35013G21KT 3/4SM -SN BKN007 OVC017 M06/M08 A2983 RMK AO2 T10571085
KISQ 101815Z AUTO 01011KT 7SM -SN BKN017 OVC024 M04/M09 A2982 RMK AO2 T10451094
KISQ 101755Z AUTO 35004KT 7SM -SN BKN017 BKN041 OVC055 M05/M09 A2981 RMK AO2 T10471095 11042 21090
KISQ 101735Z AUTO 34005KT 4SM -SN BKN017 BKN023 OVC055 M05/M09 A2981 RMK AO2 T10471095
KISQ 101715Z AUTO 31007KT 7SM -SN BKN019 BKN023 OVC033 M05/M10 A2981 RMK AO2 T10551101
KISQ 101655Z AUTO 29008KT 10SM -SN SCT019 BKN034 OVC041 M06/M11 A2980 RMK AO2 T10581108
KISQ 101635Z AUTO 28008KT 10SM -SN SCT027 OVC041 M06/M11 A2980 RMK AO2 T10621111
KISQ 101615Z AUTO 28010KT 10SM OVC041 M06/M11 A2980 RMK AO2 T10651112
KISQ 101555Z AUTO 27009G15KT 10SM -SN SCT021 SCT025 OVC039 M07/M11 A2980 RMK AO2 T10681115
KISQ 101535Z AUTO 28010KT 10SM -SN SCT031 OVC039 M06/M11 A2980 RMK AO2 T10651115
KISQ 101515Z AUTO 27009KT 10SM -SN OVC034 M07/M11 A2979 RMK AO2 T10751113
KISQ 101455Z AUTO 27007KT 10SM -SN SCT032 OVC045 M08/M11 A2978 RMK AO2 T10781115
KISQ 101435Z AUTO 27007KT 7SM -SN SCT039 OVC047 M08/M11 A2978 RMK AO2 T10801114
KISQ 101415Z AUTO 26005KT 7SM -SN SCT037 BKN043 OVC049 M08/M12 A2978 RMK AO2 T10821119
KISQ 101355Z AUTO 25006KT 4SM -SN SCT018 SCT029 OVC037 M08/M12 A2978 RMK AO2 T10851120
KISQ 101335Z AUTO 26006KT 5SM -SN BKN018 OVC034 M08/M13 A2978 RMK AO2 T10851127
KISQ 101315Z AUTO 27007KT 10SM -SN BKN018 BKN026 OVC033 M09/M13 A2978 RMK AO2 T10861131
KISQ 101255Z AUTO 26005KT 10SM SCT018 BKN026 OVC031 M09/M13 A2978 RMK AO2 T10871134
KISQ 101235Z AUTO 27006KT 10SM BKN020 OVC026 M09/M13 A2978 RMK AO2 T10881135
KISQ 101215Z AUTO 27004KT 10SM SCT022 BKN029 OVC034 M09/M14 A2978 RMK AO2 T10901138
KISQ 101155Z AUTO 27004KT 10SM OVC036 M09/M14 A2978 RMK AO2 T10901140 11090 21096
KISQ 101135Z AUTO 27004KT 10SM BKN038 OVC080 M09/M14 A2978 RMK AO2 T10911140
KISQ 101115Z AUTO 26004KT 10SM OVC090 M09/M14 A2978 RMK AO2 T10921142
KISQ 101055Z AUTO 27006KT 10SM OVC090 M09/M14 A2978 RMK AO2 T10921143
KISQ 101035Z AUTO 26006KT 10SM OVC090 M09/M14 A2978 RMK AO2 T10921145
KISQ 101015Z AUTO 27006KT 10SM OVC090 M09/M15 A2979 RMK AO2 T10911146
KISQ 100955Z AUTO 27005KT 10SM OVC090 M09/M15 A2979 RMK AO2 T10911150
KISQ 100935Z AUTO 27005KT 10SM OVC100 M09/M15 A2979 RMK AO2 T10901152
KISQ 100915Z AUTO 27004KT 10SM OVC100 M09/M15 A2980 RMK AO2 T10901155
KISQ 100855Z AUTO 27007KT 10SM SCT055 SCT070 OVC100 M09/M16 A2980 RMK AO2 T10921159
KISQ 100835Z AUTO 26005KT 10SM BKN055 OVC070 M09/M16 A2981 RMK AO2 T10921157
KISQ 100815Z AUTO 27006KT 10SM SCT048 BKN055 OVC070 M09/M16 A2981 RMK AO2 T10921157
KISQ 100755Z AUTO 25005KT 10SM SCT050 OVC070 M09/M16 A2981 RMK AO2 T10921159
KISQ 100735Z AUTO 27005KT 10SM BKN050 OVC060 M09/M16 A2982 RMK AO2 T10941160
KISQ 100715Z AUTO 26006KT 10SM SCT060 BKN070 OVC120 M09/M16 A2983 RMK AO2 T10951157
KISQ 100655Z AUTO 27008KT 230V290 10SM SCT070 BKN085 OVC120 M09/M16 A2983 RMK AO2 T10951157
KISQ 100635Z AUTO 27005KT 10SM BKN080 BKN120 M10/M16 A2984 RMK AO2 T10961159
KISQ 100615Z AUTO 26004KT 10SM BKN080 OVC120 M10/M16 A2985 RMK AO2 T10961160
KISQ 100555Z AUTO 27003KT 10SM BKN080 M09/M16 A2985 RMK AO2 T10951160 11076 21095
KISQ 100535Z AUTO 27006KT 10SM SCT080 M09/M16 A2986 RMK AO2 T10951161
KISQ 100515Z AUTO 26003KT 10SM SCT070 BKN080 M09/M16 A2987 RMK AO2 T10951160
KISQ 100455Z AUTO 28006KT 10SM OVC070 M09/M16 A2988 RMK AO2 T10951160
KISQ 100435Z AUTO 27007KT 10SM OVC080 M09/M16 A2989 RMK AO2 T10951160
KISQ 100415Z AUTO 28007KT 10SM OVC080 M09/M16 A2989 RMK AO2 T10951161
KISQ 100355Z AUTO 29009KT 10SM OVC090 M09/M16 A2990 RMK AO2 T10951161 410381095
KISQ 100335Z AUTO 28010KT 10SM OVC100 M09/M16 A2990 RMK AO2 T10951157
KISQ 100315Z AUTO 29012G17KT 10SM OVC110 M09/M15 A2991 RMK AO2 T10931155
KISQ 100255Z AUTO 29010G14KT 10SM OVC110 M09/M15 A2990 RMK AO2 T10921152
KISQ 100235Z AUTO 29010KT 10SM OVC110 M09/M15 A2990 RMK AO2 T10921152
KISQ 100215Z AUTO 29008KT 10SM BKN110 M09/M15 A2990 RMK AO2 T10921150
KISQ 100155Z AUTO 29007KT 10SM SCT029 BKN120 M09/M15 A2992 RMK AO2 T10911150
KISQ 100135Z AUTO 28008KT 10SM SCT029 BKN037 BKN120 M09/M15 A2992 RMK AO2 T10901148
KISQ 100115Z AUTO 29008KT 10SM SCT026 BKN035 M09/M15 A2993 RMK AO2 T10871146
KISQ 100055Z AUTO 29007KT 10SM SCT030 BKN037 M09/M14 A2993 RMK AO2 T10871142
KISQ 100035Z AUTO 29009G14KT 10SM SCT025 OVC030 M08/M13 A2993 RMK AO2 T10801130
KISQ 100015Z AUTO 30009KT 7SM -SN SCT025 OVC036 M08/M11 A2993 RMK AO2 T10761111
KISQ 092355Z AUTO 30005KT 10SM BKN038 M08/M12 A2993 RMK AO2 T10781120 11039 21085
KISQ 092335Z AUTO 31004KT 10SM BKN036 M08/M13 A2992 RMK AO2 T10851131
KISQ 092315Z AUTO 32003KT 10SM OVC036 M08/M13 A2992 RMK AO2 T10781130
KISQ 092255Z AUTO 33007KT 10SM OVC036 M07/M13 A2992 RMK AO2 T10741128
KISQ 092235Z AUTO 33007KT 10SM OVC036 M07/M13 A2992 RMK AO2 T10721132
KISQ 092215Z AUTO 33008KT 10SM BKN034 M07/M13 A2992 RMK AO2 T10751132
KISQ 092155Z AUTO 33008KT 10SM BKN032 M07/M13 A2991 RMK AO2 T10701135
KISQ 092135Z AUTO 33008G16KT 10SM BKN030 M07/M14 A2990 RMK AO2 T10711138
KISQ 092115Z AUTO 34010G16KT 10SM OVC032 M06/M13 A2989 RMK AO2 T10641134
KISQ 092055Z AUTO 33013G20KT 10SM SCT027 BKN034 M06/M14 A2989 RMK AO2 T10651136
KISQ 092035Z AUTO 33015G21KT 10SM -SN SCT027 BKN034 M06/M13 A2988 RMK AO2 T10571133
KISQ 092015Z AUTO 33013G19KT 10SM BKN029 BKN034 M06/M14 A2987 RMK AO2 T10561145
KISQ 091955Z AUTO 35015G22KT 10SM SCT029 M05/M15 A2986 RMK AO2 T10511149
KISQ 091935Z AUTO 34015G20KT 10SM SCT025 BKN031 M05/M15 A2986 RMK AO2 T10551151
KISQ 091915Z AUTO 35014G21KT 10SM SCT025 OVC033 M05/M14 A2986 RMK AO2 T10511141
KISQ 091855Z AUTO 33015G20KT 10SM -SN SCT020 SCT028 OVC033 M05/M13 A2986 RMK AO2 T10501130
KISQ 091835Z AUTO 35016G21KT 10SM SCT020 BKN028 BKN033 M04/M13 A2986 RMK AO2 T10451131
KISQ 091815Z AUTO 34010G18KT 10SM BKN025 BKN036 M04/M13 A2986 RMK AO2 T10401131
KISQ 091755Z AUTO 35012G22KT 10SM BKN023 M04/M13 A2986 RMK AO2 T10451126 11038 21080
KISQ 091735Z AUTO 35011KT 10SM BKN021 BKN027 M05/M11 A2986 RMK AO2 T10471107
KISQ 091715Z AUTO 36014G19KT 10SM BKN019 M04/M10 A2986 RMK AO2 T10391100
KISQ 091655Z AUTO 35011G16KT 10SM BKN015 OVC070 M05/M09 A2985 RMK AO2 T10521091
KISQ 091635Z AUTO 36014G18KT 10SM SCT015 OVC070 M05/M09 A2985 RMK AO2 T10531090
KISQ 091615Z AUTO 01013G17KT 10SM SCT032 OVC070 M05/M09 A2985 RMK AO2 T10551088